KYKN/YKN METAR and TAF weather

Enter ICAO airport designator
Station Type Date Time Source
KYKN METAR 2019/04/25 09:56 UTC NOAA

KYKN 250956Z AUTO 32007KT 10SM RA FEW048 OVC070 12/11 A2986 RMK AO2 SLP118 P0011 T01170111


Station Type Date Time Source
KYKN Decoded METAR 2019/04/25 09:56 UTC NOAA

Yankton, Chan Gurney Municipal Airport, SD, United States (KYKN) 42-55N 097-23W
Apr 25, 2019 - 05:56 AM EDT / 2019.04.25 0956 UTC
Wind: from the NW (320 degrees) at 8 MPH (7 KT):0
Visibility: 10 mile(s):0
Sky conditions: overcast
Weather: rain
Precipitation last hour: 0.11 inches
Temperature: 53.1 F (11.7 C)
Dew Point: 52.0 F (11.1 C)
Relative Humidity: 96%
Pressure (altimeter): 29.86 in. Hg (1011 hPa)
ob: KYKN 250956Z AUTO 32007KT 10SM RA FEW048 OVC070 12/11 A2986 RMK AO2 SLP118 P0011 T01170111
cycle: 10

Station Type Date Time Source
KYKN TAF UTC NOAA

Error!

Example: see airport list